Time;durP1;ratioP1;P1;durP2;ratioP2;P2;SDS_P1;SDS_P2;PMS_P1;PMS_P2;Temp;Humidity;BMP_temperature;BMP_pressure;BME280_temperature;BME280_humidity;BME280_pressure;Samples;Min_cycle;Max_cycle;Signal;HPM_P1;HPM_P2
2023/08/14 00:02:02;;;;;;;5.93;4.85;;;15.50;99.90;;;;;;5035585;28;20040;-81
2023/08/14 00:04:28;;;;;;;6.95;4.47;;;15.50;99.90;;;;;;5035565;28;20127;-80
2023/08/14 00:06:54;;;;;;;5.80;4.70;;;15.50;99.90;;;;;;5009459;28;20202;-81
2023/08/14 00:09:20;;;;;;;6.80;5.32;;;15.50;99.90;;;;;;5018965;28;20090;-81
2023/08/14 00:11:46;;;;;;;4.82;4.43;;;15.40;99.90;;;;;;5045442;28;20126;-81
2023/08/14 00:14:11;;;;;;;7.50;4.78;;;15.50;99.90;;;;;;5019508;28;20504;-81
2023/08/14 00:16:37;;;;;;;4.38;3.97;;;15.40;99.90;;;;;;5052060;28;20069;-81
2023/08/14 00:19:03;;;;;;;5.63;5.00;;;15.40;99.90;;;;;;5051934;28;20412;-80
2023/08/14 00:21:29;;;;;;;8.13;5.65;;;15.40;99.90;;;;;;5035224;28;20044;-81
2023/08/14 00:23:55;;;;;;;8.05;5.20;;;15.40;99.90;;;;;;5034754;28;20051;-81
2023/08/14 00:26:21;;;;;;;5.80;5.20;;;15.30;99.90;;;;;;5052032;28;20055;-80
2023/08/14 00:28:46;;;;;;;5.93;5.05;;;15.30;99.90;;;;;;5052777;28;20071;-81
2023/08/14 00:31:12;;;;;;;7.40;5.80;;;15.30;99.90;;;;;;5036621;28;20120;-80
2023/08/14 00:33:38;;;;;;;7.78;5.82;;;15.30;99.90;;;;;;5051157;28;20045;-81
2023/08/14 00:36:05;;;;;;;7.82;6.10;;;15.30;99.90;;;;;;5051380;28;20047;-81
2023/08/14 00:38:31;;;;;;;6.95;6.25;;;15.30;99.90;;;;;;5045593;28;20056;-81
2023/08/14 00:40:57;;;;;;;6.72;6.13;;;15.30;99.90;;;;;;5051453;28;20790;-82
2023/08/14 00:43:23;;;;;;;6.07;5.53;;;15.30;99.90;;;;;;5051964;28;20052;-81
2023/08/14 00:45:52;;;;;;;6.00;5.50;;;15.30;99.90;;;;;;5038604;28;20135;-81
2023/08/14 00:48:18;;;;;;;7.45;5.50;;;15.30;99.90;;;;;;5041122;28;20037;-81
2023/08/14 00:50:45;;;;;;;7.28;5.85;;;15.20;99.90;;;;;;5019130;28;20098;-81
2023/08/14 00:53:14;;;;;;;10.30;6.55;;;15.20;99.90;;;;;;5051768;28;20124;-81
2023/08/14 00:55:40;;;;;;;6.72;6.05;;;15.20;99.90;;;;;;5051779;28;20060;-81
2023/08/14 00:58:06;;;;;;;8.85;6.47;;;15.20;99.90;;;;;;5025781;28;20080;-80
2023/08/14 01:00:34;;;;;;;9.32;5.97;;;15.20;99.90;;;;;;5033001;28;20091;-81
2023/08/14 01:03:01;;;;;;;9.10;5.70;;;15.20;99.90;;;;;;5018497;28;20463;-81
2023/08/14 01:05:26;;;;;;;6.18;5.20;;;15.10;99.90;;;;;;5054871;28;20476;-81
2023/08/14 01:07:52;;;;;;;10.57;5.50;;;15.10;99.90;;;;;;5028801;28;20082;-81
2023/08/14 01:10:19;;;;;;;6.35;4.82;;;15.10;99.90;;;;;;5039471;28;20045;-80
2023/08/14 01:12:53;;;;;;;8.18;5.88;;;15.10;99.90;;;;;;5034691;28;20047;-81
2023/08/14 01:15:29;;;;;;;6.30;4.20;;;15.10;99.90;;;;;;5033878;28;20106;-81
2023/08/14 01:17:59;;;;;;;3.85;3.45;;;15.10;99.90;;;;;;5027139;28;20723;-81
2023/08/14 01:20:29;;;;;;;3.92;3.63;;;15.00;99.90;;;;;;5051769;28;20041;-81
2023/08/14 01:23:05;;;;;;;6.80;4.10;;;15.00;99.90;;;;;;5034484;28;20074;-80
2023/08/14 01:25:39;;;;;;;6.13;4.50;;;14.90;99.90;;;;;;5028592;28;20112;-80
2023/08/14 01:28:08;;;;;;;7.60;6.32;;;14.90;99.90;;;;;;5043319;28;20549;-82
2023/08/14 01:30:34;;;;;;;7.57;6.78;;;14.90;99.90;;;;;;5033780;28;20041;-80
2023/08/14 01:33:00;;;;;;;8.50;6.35;;;14.90;99.90;;;;;;5033842;28;20048;-80
2023/08/14 01:35:30;;;;;;;7.43;6.13;;;14.90;99.90;;;;;;5034018;28;20029;-81
2023/08/14 01:38:11;;;;;;;10.40;6.45;;;14.90;99.90;;;;;;5044253;28;20493;-81
2023/08/14 01:41:00;;;;;;;6.82;6.13;;;14.90;99.90;;;;;;5023101;28;20044;-81
2023/08/14 01:43:37;;;;;;;10.15;6.88;;;14.80;99.90;;;;;;5027115;28;20190;-80
2023/08/14 01:46:06;;;;;;;7.35;6.40;;;14.80;99.90;;;;;;5039621;28;20051;-81
2023/08/14 01:48:34;;;;;;;9.80;6.80;;;14.80;99.90;;;;;;5047440;28;20041;-81
2023/08/14 01:51:01;;;;;;;11.75;6.50;;;14.80;99.90;;;;;;5033358;28;20489;-81
2023/08/14 01:53:27;;;;;;;8.95;6.97;;;14.80;99.90;;;;;;5025459;28;20045;-81
2023/08/14 01:55:53;;;;;;;8.68;6.35;;;14.80;99.90;;;;;;5037658;28;20052;-81
2023/08/14 01:58:18;;;;;;;7.05;6.35;;;14.70;99.90;;;;;;5032580;28;20675;-80
2023/08/14 02:00:44;;;;;;;8.25;6.35;;;14.80;99.90;;;;;;5034007;28;20040;-81
2023/08/14 02:03:10;;;;;;;8.50;7.20;;;14.70;99.90;;;;;;5017142;28;20389;-80
2023/08/14 02:05:35;;;;;;;11.45;7.10;;;14.70;99.90;;;;;;5033836;28;20085;-80
2023/08/14 02:08:01;;;;;;;11.95;7.18;;;14.70;99.90;;;;;;5033099;28;20400;-81
2023/08/14 02:10:27;;;;;;;11.63;7.57;;;14.70;99.90;;;;;;5016790;28;20468;-81
2023/08/14 02:12:53;;;;;;;11.75;7.00;;;14.70;99.90;;;;;;5035692;28;20072;-81
2023/08/14 02:15:20;;;;;;;10.50;7.20;;;14.70;99.90;;;;;;5017099;28;20040;-81
2023/08/14 02:17:46;;;;;;;7.63;6.47;;;14.70;99.90;;;;;;5049782;28;20040;-81
2023/08/14 02:20:12;;;;;;;10.30;8.02;;;14.70;99.90;;;;;;5033827;28;20045;-81
2023/08/14 02:22:37;;;;;;;10.52;8.93;;;14.70;99.90;;;;;;5051600;28;20047;-80
2023/08/14 02:25:03;;;;;;;8.18;7.38;;;14.60;99.90;;;;;;5033031;28;20515;-80
2023/08/14 02:27:29;;;;;;;13.35;9.02;;;14.70;99.90;;;;;;5037210;28;20052;-81
2023/08/14 02:29:55;;;;;;;8.73;6.72;;;14.70;99.90;;;;;;5033296;28;20033;-80
2023/08/14 02:32:20;;;;;;;9.27;6.82;;;14.60;99.90;;;;;;5017721;28;20041;-80
2023/08/14 02:34:52;;;;;;;8.52;7.25;;;14.60;99.90;;;;;;5042888;28;20036;-80
2023/08/14 02:37:18;;;;;;;9.77;8.27;;;14.60;99.90;;;;;;5033946;28;20075;-81
2023/08/14 02:39:45;;;;;;;14.40;7.55;;;14.60;99.90;;;;;;5033325;28;20048;-81
2023/08/14 02:42:11;;;;;;;6.00;4.20;;;14.60;99.90;;;;;;5033203;28;20037;-81
2023/08/14 02:44:37;;;;;;;5.38;4.00;;;14.50;99.90;;;;;;5033177;28;20040;-81
2023/08/14 02:47:04;;;;;;;6.15;4.82;;;14.50;99.90;;;;;;5034128;28;20052;-81
2023/08/14 02:49:30;;;;;;;6.95;6.20;;;14.50;99.90;;;;;;5033271;28;20490;-80
2023/08/14 02:51:55;;;;;;;9.63;8.27;;;14.50;99.90;;;;;;5000836;28;20175;-81
2023/08/14 02:54:22;;;;;;;11.63;7.93;;;14.50;99.90;;;;;;5018977;28;20048;-80
2023/08/14 02:56:48;;;;;;;12.63;8.63;;;14.40;99.90;;;;;;5041567;28;20052;-81
2023/08/14 02:59:14;;;;;;;9.10;7.88;;;14.40;99.90;;;;;;5032862;28;20041;-79
2023/08/14 03:01:40;;;;;;;11.95;9.50;;;14.40;99.90;;;;;;5033987;28;20037;-80
2023/08/14 03:04:06;;;;;;;14.05;9.30;;;14.40;99.90;;;;;;5020705;28;20029;-80
2023/08/14 03:06:32;;;;;;;13.05;8.82;;;14.40;99.90;;;;;;5020464;28;20081;-80
2023/08/14 03:09:02;;;;;;;9.00;8.10;;;14.40;99.90;;;;;;5036713;28;20029;-80
2023/08/14 03:11:28;;;;;;;10.20;8.20;;;14.40;99.90;;;;;;5022981;28;20055;-80
2023/08/14 03:13:53;;;;;;;10.82;8.50;;;14.40;99.90;;;;;;5037938;28;20532;-80
2023/08/14 03:16:19;;;;;;;7.10;6.40;;;14.40;99.90;;;;;;5036685;28;20500;-80
2023/08/14 03:18:45;;;;;;;11.30;8.30;;;14.40;99.90;;;;;;5036787;28;20415;-80
2023/08/14 03:21:11;;;;;;;12.52;8.48;;;14.30;99.90;;;;;;5000699;28;20428;-80
2023/08/14 03:23:36;;;;;;;12.70;7.68;;;14.40;99.90;;;;;;5035304;28;20041;-80
2023/08/14 03:26:04;;;;;;;9.60;7.72;;;14.30;99.90;;;;;;5026552;28;20081;-81
2023/08/14 03:28:30;;;;;;;11.95;8.38;;;14.30;99.90;;;;;;5039105;28;20515;-80
2023/08/14 03:30:56;;;;;;;11.20;7.97;;;14.30;99.90;;;;;;5036736;28;20393;-80
2023/08/14 03:33:21;;;;;;;10.95;8.77;;;14.30;99.90;;;;;;5054513;28;20037;-80
2023/08/14 03:35:47;;;;;;;13.07;7.70;;;14.30;99.90;;;;;;5036481;28;20029;-80
2023/08/14 03:38:13;;;;;;;11.55;8.60;;;14.30;99.90;;;;;;5053004;28;20557;-80
2023/08/14 03:40:38;;;;;;;10.43;8.77;;;14.30;99.90;;;;;;5036034;28;20067;-80
2023/08/14 03:43:04;;;;;;;11.57;9.02;;;14.30;99.90;;;;;;5020045;28;20476;-81
2023/08/14 03:45:30;;;;;;;11.43;9.13;;;14.30;99.90;;;;;;5035887;28;20059;-81
2023/08/14 03:47:56;;;;;;;9.98;8.75;;;14.30;99.90;;;;;;5030857;28;20439;-82
2023/08/14 03:50:21;;;;;;;9.93;8.00;;;14.30;99.90;;;;;;5050227;28;20442;-81
2023/08/14 03:52:50;;;;;;;7.90;7.10;;;14.30;99.90;;;;;;5052836;28;20033;-81
2023/08/14 03:55:16;;;;;;;10.88;7.95;;;14.30;99.90;;;;;;5053500;28;20075;-80
2023/08/14 03:57:42;;;;;;;9.38;7.22;;;14.30;99.90;;;;;;5035744;28;20045;-80
2023/08/14 04:00:08;;;;;;;10.02;7.88;;;14.30;99.90;;;;;;5046205;28;20131;-80
2023/08/14 04:02:34;;;;;;;9.75;8.57;;;14.30;99.90;;;;;;5035573;28;20509;-80
2023/08/14 04:04:59;;;;;;;9.35;7.03;;;14.40;99.90;;;;;;5053706;28;20048;-80
2023/08/14 04:07:25;;;;;;;7.82;6.22;;;14.40;99.90;;;;;;5052452;28;20071;-81
2023/08/14 04:09:51;;;;;;;6.80;5.30;;;14.40;99.90;;;;;;5035653;28;20035;-81
2023/08/14 04:12:16;;;;;;;7.38;5.60;;;14.30;99.90;;;;;;5049176;28;20032;-80
2023/08/14 04:14:43;;;;;;;7.40;6.25;;;14.30;99.90;;;;;;5035563;28;20071;-81
2023/08/14 04:17:09;;;;;;;9.30;7.72;;;14.30;99.90;;;;;;5046546;28;20049;-81
2023/08/14 04:19:35;;;;;;;8.88;6.43;;;14.20;99.90;;;;;;5035164;28;20044;-81
2023/08/14 04:22:00;;;;;;;10.27;8.25;;;14.20;99.90;;;;;;5051004;28;20071;-80
2023/08/14 04:24:26;;;;;;;10.07;8.45;;;14.20;99.90;;;;;;5035320;28;20484;-80
2023/08/14 04:26:52;;;;;;;12.95;8.98;;;14.20;99.90;;;;;;5050734;28;20040;-80
2023/08/14 04:29:18;;;;;;;11.32;8.30;;;14.30;99.90;;;;;;5032862;28;20393;-80
2023/08/14 04:31:45;;;;;;;9.80;8.52;;;14.20;99.90;;;;;;5058044;28;20046;-81
2023/08/14 04:34:11;;;;;;;10.32;8.07;;;14.20;99.90;;;;;;5042426;28;20033;-81
2023/08/14 04:36:37;;;;;;;11.90;9.02;;;14.30;99.90;;;;;;5056044;28;20037;-81
2023/08/14 04:39:04;;;;;;;16.90;12.30;;;14.30;99.90;;;;;;5040866;28;20392;-81
2023/08/14 04:41:30;;;;;;;16.25;11.65;;;14.40;99.90;;;;;;5035846;28;20048;-81
2023/08/14 04:43:56;;;;;;;17.73;13.38;;;14.50;99.90;;;;;;5035086;28;20037;-81
2023/08/14 04:46:35;;;;;;;15.32;11.82;;;14.50;99.90;;;;;;5035178;28;20036;-81
2023/08/14 04:49:02;;;;;;;14.75;12.65;;;14.60;99.90;;;;;;5051855;28;20052;-80
2023/08/14 04:51:29;;;;;;;8.65;7.75;;;14.60;99.90;;;;;;5005449;28;20068;-81
2023/08/14 04:53:56;;;;;;;11.18;7.90;;;14.70;99.90;;;;;;5028775;28;20605;-81
2023/08/14 04:56:22;;;;;;;11.13;8.48;;;14.60;99.90;;;;;;5047665;28;20401;-81
2023/08/14 04:58:47;;;;;;;13.77;10.55;;;14.60;99.90;;;;;;5042978;28;20049;-80
2023/08/14 05:01:13;;;;;;;16.17;13.13;;;14.60;99.90;;;;;;5047113;28;20142;-80
2023/08/14 05:03:39;;;;;;;15.00;12.60;;;14.70;99.90;;;;;;5027323;28;20132;-80
2023/08/14 05:06:05;;;;;;;20.52;15.00;;;14.70;99.90;;;;;;5043112;28;20041;-80
2023/08/14 05:08:31;;;;;;;29.00;17.70;;;14.80;99.90;;;;;;5043727;28;20082;-80
2023/08/14 05:10:57;;;;;;;26.40;17.45;;;14.90;99.90;;;;;;5041305;28;20052;-80
2023/08/14 05:13:22;;;;;;;19.90;16.52;;;14.90;99.90;;;;;;5042305;28;20052;-80
2023/08/14 05:15:50;;;;;;;23.42;17.45;;;15.00;99.90;;;;;;5025959;28;20147;-80
2023/08/14 05:18:16;;;;;;;26.77;18.67;;;15.00;99.90;;;;;;5025965;28;20045;-80
2023/08/14 05:20:46;;;;;;;23.00;17.10;;;15.10;99.90;;;;;;5025838;28;20122;-80
2023/08/14 05:23:12;;;;;;;23.60;16.50;;;15.10;99.90;;;;;;5042173;28;20044;-81
2023/08/14 05:25:38;;;;;;;25.65;17.48;;;15.20;99.90;;;;;;5038251;28;20432;-80
2023/08/14 05:28:05;;;;;;;26.77;19.15;;;15.20;99.90;;;;;;5039135;28;20049;-81
2023/08/14 05:30:30;;;;;;;20.50;18.30;;;15.20;99.90;;;;;;5024347;28;20042;-81
2023/08/14 05:32:56;;;;;;;24.38;18.13;;;15.30;99.90;;;;;;5040312;28;20037;-81
2023/08/14 05:35:25;;;;;;;24.85;17.75;;;15.40;99.90;;;;;;5039874;28;20503;-82
2023/08/14 05:37:56;;;;;;;22.75;16.27;;;15.40;99.90;;;;;;5040060;28;20481;-81
2023/08/14 05:40:22;;;;;;;23.45;16.50;;;15.50;99.90;;;;;;5040197;28;20052;-81
2023/08/14 05:43:07;;;;;;;23.63;17.23;;;15.60;99.90;;;;;;5040382;28;20124;-81
2023/08/14 05:45:38;;;;;;;21.38;16.52;;;15.70;99.90;;;;;;5024931;28;20067;-81
2023/08/14 05:48:06;;;;;;;20.17;15.45;;;15.80;99.90;;;;;;5026041;28;20072;-82
2023/08/14 05:50:33;;;;;;;18.42;15.15;;;15.90;99.90;;;;;;5025301;28;20043;-82
2023/08/14 05:53:03;;;;;;;19.83;15.07;;;16.00;99.90;;;;;;5023638;28;20410;-81
2023/08/14 05:55:37;;;;;;;21.98;15.13;;;16.00;99.90;;;;;;5041138;28;20111;-82
2023/08/14 05:58:04;;;;;;;17.90;13.63;;;16.10;99.90;;;;;;5057578;28;20057;-82
2023/08/14 06:00:30;;;;;;;20.58;15.02;;;16.10;99.90;;;;;;5025662;28;20045;-83
2023/08/14 06:02:56;;;;;;;18.52;14.25;;;16.20;99.90;;;;;;5025989;28;20068;-82
2023/08/14 06:05:23;;;;;;;18.20;15.40;;;16.20;99.90;;;;;;5042827;28;20029;-82
2023/08/14 06:07:50;;;;;;;20.55;14.57;;;16.30;99.90;;;;;;5058970;28;20037;-83
2023/08/14 06:10:16;;;;;;;21.42;15.57;;;16.30;99.90;;;;;;5025250;28;20083;-83
2023/08/14 06:12:44;;;;;;;20.70;14.43;;;16.40;99.90;;;;;;5041079;28;20063;-82
2023/08/14 06:15:10;;;;;;;17.63;14.20;;;16.40;99.90;;;;;;5040217;28;20510;-83
2023/08/14 06:17:36;;;;;;;18.40;13.55;;;16.50;99.90;;;;;;5025400;28;20550;-84
2023/08/14 06:20:02;;;;;;;20.33;14.00;;;16.50;99.90;;;;;;5040696;28;20053;-84
2023/08/14 06:22:28;;;;;;;22.35;15.27;;;16.60;99.90;;;;;;5041164;28;20056;-83
2023/08/14 06:24:54;;;;;;;16.65;13.35;;;16.70;99.90;;;;;;5025853;28;20052;-84
2023/08/14 06:27:20;;;;;;;16.88;13.52;;;16.80;99.90;;;;;;5042858;28;20045;-84
2023/08/14 06:29:46;;;;;;;18.73;12.63;;;16.90;99.90;;;;;;5009591;28;20037;-84
2023/08/14 06:32:12;;;;;;;16.83;11.63;;;16.90;99.90;;;;;;5024548;28;20045;-84
2023/08/14 06:34:38;;;;;;;14.82;11.02;;;16.90;99.90;;;;;;5024338;28;20492;-83
2023/08/14 06:37:04;;;;;;;12.63;10.90;;;16.90;99.90;;;;;;5060488;28;20087;-83
2023/08/14 06:39:30;;;;;;;16.73;11.55;;;16.90;99.90;;;;;;5043544;28;20048;-84
2023/08/14 06:41:56;;;;;;;14.27;11.43;;;17.00;99.90;;;;;;5028021;28;20045;-83
2023/08/14 06:44:22;;;;;;;14.50;11.02;;;17.00;99.90;;;;;;5028384;28;20110;-83
2023/08/14 06:46:48;;;;;;;15.32;10.95;;;17.00;99.90;;;;;;5028455;28;20037;-84
2023/08/14 06:49:13;;;;;;;11.40;10.20;;;17.00;99.90;;;;;;5046281;28;20039;-85
2023/08/14 06:51:40;;;;;;;12.88;10.23;;;17.10;99.90;;;;;;5045532;28;20091;-85
2023/08/14 06:54:06;;;;;;;14.38;11.00;;;17.10;99.90;;;;;;5029488;28;20041;-84
2023/08/14 06:56:32;;;;;;;15.30;10.40;;;17.10;99.90;;;;;;5042687;28;20090;-84
2023/08/14 06:58:58;;;;;;;16.92;10.57;;;17.10;99.90;;;;;;5028557;28;20049;-84
2023/08/14 07:01:24;;;;;;;12.85;9.40;;;17.20;99.90;;;;;;5012183;28;20057;-84
2023/08/14 07:03:50;;;;;;;14.40;10.02;;;17.20;99.90;;;;;;5026061;28;20923;-83
2023/08/14 07:06:16;;;;;;;13.93;9.70;;;17.20;99.90;;;;;;5060807;28;20048;-84
2023/08/14 07:08:42;;;;;;;12.95;9.20;;;17.30;99.90;;;;;;5044498;28;20037;-83
2023/08/14 07:11:08;;;;;;;11.43;9.98;;;17.30;99.90;;;;;;5044694;28;20045;-83
2023/08/14 07:13:33;;;;;;;13.73;10.00;;;17.40;99.90;;;;;;5026111;28;20549;-84
2023/08/14 07:15:59;;;;;;;15.90;10.18;;;17.40;99.90;;;;;;5036595;28;20044;-83
2023/08/14 07:18:25;;;;;;;14.45;10.40;;;17.50;99.90;;;;;;5032445;28;20044;-83
2023/08/14 07:20:54;;;;;;;14.43;10.63;;;17.50;99.90;;;;;;5036308;28;20505;-83
2023/08/14 07:23:20;;;;;;;13.73;10.65;;;17.50;99.90;;;;;;5036846;28;20057;-83
2023/08/14 07:25:47;;;;;;;12.48;9.95;;;17.50;99.90;;;;;;5049188;28;20037;-83
2023/08/14 07:28:12;;;;;;;13.00;10.20;;;17.60;99.90;;;;;;5044499;28;20072;-82
2023/08/14 07:30:39;;;;;;;12.70;9.88;;;17.60;99.90;;;;;;5044632;28;20088;-83
2023/08/14 07:33:10;;;;;;;14.15;9.65;;;17.70;99.90;;;;;;5028566;28;20094;-81
2023/08/14 07:35:36;;;;;;;11.00;9.45;;;17.70;99.90;;;;;;5044516;28;20087;-83
2023/08/14 07:38:03;;;;;;;14.88;11.13;;;17.80;99.90;;;;;;5028021;28;20052;-83
2023/08/14 07:40:29;;;;;;;12.93;10.40;;;17.90;99.90;;;;;;5042587;28;20045;-83
2023/08/14 07:42:55;;;;;;;14.23;10.32;;;18.10;99.90;;;;;;5043559;28;20055;-83
2023/08/14 07:45:20;;;;;;;15.38;10.05;;;18.20;99.90;;;;;;5042956;28;20136;-83
2023/08/14 07:47:46;;;;;;;12.80;9.52;;;18.40;99.90;;;;;;5027223;28;20049;-83
2023/08/14 07:50:12;;;;;;;14.95;10.45;;;18.60;99.90;;;;;;5044120;28;20044;-83
2023/08/14 07:52:38;;;;;;;16.60;10.80;;;18.80;99.90;;;;;;5026044;28;20128;-82
2023/08/14 07:55:05;;;;;;;12.50;9.90;;;19.00;99.90;;;;;;5043009;28;20492;-81
2023/08/14 07:57:31;;;;;;;10.50;8.38;;;19.20;99.90;;;;;;5027764;28;20131;-83
2023/08/14 07:59:57;;;;;;;9.70;7.65;;;19.40;99.90;;;;;;5044044;28;20140;-82
2023/08/14 08:02:23;;;;;;;10.35;7.53;;;19.50;99.90;;;;;;5027391;28;20076;-82
2023/08/14 08:04:49;;;;;;;9.73;7.40;;;19.70;99.90;;;;;;5010653;28;20510;-84
2023/08/14 08:07:15;;;;;;;10.57;6.13;;;19.60;99.90;;;;;;5011644;28;20037;-82
2023/08/14 08:09:41;;;;;;;8.65;5.78;;;19.60;99.90;;;;;;5043791;28;20598;-83
2023/08/14 08:12:07;;;;;;;6.15;5.47;;;19.70;99.90;;;;;;5044513;28;20061;-81
2023/08/14 08:14:34;;;;;;;6.05;5.45;;;19.90;99.90;;;;;;5044035;28;20492;-82
2023/08/14 08:17:00;;;;;;;7.68;5.18;;;20.00;99.90;;;;;;5042651;28;20446;-82
2023/08/14 08:19:26;;;;;;;9.80;5.53;;;20.10;99.90;;;;;;5044482;28;20128;-82
2023/08/14 08:21:52;;;;;;;6.47;4.63;;;20.30;99.90;;;;;;5043170;28;20121;-82
2023/08/14 08:24:18;;;;;;;7.72;4.60;;;20.40;99.90;;;;;;5028384;28;20047;-82
2023/08/14 08:26:44;;;;;;;4.68;4.03;;;20.50;99.90;;;;;;5043860;28;20049;-81
2023/08/14 08:29:10;;;;;;;7.78;3.63;;;20.60;99.90;;;;;;5027220;28;20083;-82
2023/08/14 08:31:36;;;;;;;5.70;3.72;;;20.70;99.90;;;;;;5043144;28;20696;-81
2023/08/14 08:34:02;;;;;;;6.97;4.40;;;20.80;99.90;;;;;;5045014;28;20053;-82
2023/08/14 08:36:27;;;;;;;5.90;3.85;;;20.90;99.90;;;;;;5044401;28;20507;-82
2023/08/14 08:38:53;;;;;;;7.57;3.90;;;21.10;99.90;;;;;;5029001;28;20057;-82
2023/08/14 08:41:40;;;;;;;4.70;3.78;;;21.20;99.90;;;;;;5037170;28;20047;-83
2023/08/14 08:44:09;;;;;;;6.15;3.83;;;21.30;99.90;;;;;;5044714;28;20041;-81
2023/08/14 08:46:37;;;;;;;6.50;4.70;;;21.40;99.90;;;;;;5037063;28;20040;-82
2023/08/14 08:49:04;;;;;;;6.38;4.20;;;21.50;99.90;;;;;;5044596;28;20135;-82
2023/08/14 08:51:34;;;;;;;4.82;4.35;;;21.60;99.90;;;;;;5053944;28;20051;-81
2023/08/14 08:54:00;;;;;;;7.90;4.72;;;21.70;99.90;;;;;;5056362;28;20044;-81
2023/08/14 08:56:26;;;;;;;5.25;4.65;;;21.70;99.90;;;;;;5031051;28;20032;-81
2023/08/14 08:58:52;;;;;;;8.00;4.55;;;21.70;99.90;;;;;;5053915;28;20107;-81
2023/08/14 09:01:20;;;;;;;6.20;4.43;;;21.60;99.90;;;;;;5055765;28;20106;-83
2023/08/14 09:03:47;;;;;;;5.57;4.28;;;21.50;99.90;;;;;;5070947;28;20048;-82
2023/08/14 09:06:13;;;;;;;6.28;3.88;;;21.40;99.90;;;;;;5021155;28;20098;-82
2023/08/14 09:08:39;;;;;;;7.80;3.90;;;21.30;99.90;;;;;;5050969;28;20190;-82
2023/08/14 09:11:05;;;;;;;9.73;4.13;;;21.50;99.90;;;;;;5002387;28;20555;-82
2023/08/14 09:13:30;;;;;;;5.65;4.00;;;21.70;99.90;;;;;;5019961;28;20496;-82
2023/08/14 09:15:56;;;;;;;5.13;4.13;;;21.90;99.90;;;;;;5039617;28;20041;-84
2023/08/14 09:18:22;;;;;;;7.88;3.78;;;22.10;99.90;;;;;;5017446;28;20132;-82
2023/08/14 09:20:48;;;;;;;7.30;4.00;;;22.20;99.90;;;;;;5057467;28;20045;-82
2023/08/14 09:23:14;;;;;;;4.45;3.17;;;22.30;99.90;;;;;;5035648;28;20049;-83
2023/08/14 09:25:42;;;;;;;7.40;3.55;;;22.30;99.90;;;;;;5052756;28;20051;-82
2023/08/14 09:28:09;;;;;;;4.78;3.67;;;22.40;99.90;;;;;;5056377;28;20120;-84
2023/08/14 09:30:38;;;;;;;6.28;3.33;;;22.50;99.90;;;;;;5034785;28;20067;-82
2023/08/14 09:33:08;;;;;;;8.55;4.18;;;22.50;99.90;;;;;;5034619;28;20080;-82
2023/08/14 09:35:35;;;;;;;3.88;3.28;;;22.50;99.90;;;;;;5024871;28;20072;-82
2023/08/14 09:38:01;;;;;;;5.88;3.10;;;22.40;99.90;;;;;;5037292;28;20630;-82
2023/08/14 09:40:27;;;;;;;3.38;2.97;;;22.20;99.90;;;;;;5062420;28;20379;-83
2023/08/14 09:42:55;;;;;;;7.00;3.13;;;22.20;99.90;;;;;;5041457;28;20036;-83
2023/08/14 09:45:24;;;;;;;7.15;3.22;;;22.10;99.90;;;;;;5045296;28;20040;-83
2023/08/14 09:47:50;;;;;;;4.40;3.03;;;22.10;99.90;;;;;;5017399;28;20060;-83
2023/08/14 09:50:19;;;;;;;4.95;2.85;;;22.30;99.90;;;;;;5041391;28;20108;-82
2023/08/14 09:52:45;;;;;;;6.22;3.17;;;22.50;99.90;;;;;;5042003;28;20127;-83
2023/08/14 09:55:15;;;;;;;4.38;2.53;;;22.60;99.90;;;;;;5054056;28;20041;-82
2023/08/14 09:57:41;;;;;;;6.00;3.20;;;22.80;99.90;;;;;;5054007;28;20373;-83
2023/08/14 10:00:07;;;;;;;4.53;3.20;;;23.00;99.90;;;;;;5057772;28;20052;-82
2023/08/14 10:02:35;;;;;;;4.38;2.70;;;23.00;99.90;;;;;;5050388;28;20064;-82
2023/08/14 10:05:03;;;;;;;3.40;2.58;;;23.10;99.90;;;;;;5043966;28;20032;-83
2023/08/14 10:07:31;;;;;;;5.18;3.08;;;23.00;99.90;;;;;;5020362;28;20064;-83
2023/08/14 10:10:02;;;;;;;5.05;2.60;;;23.00;99.90;;;;;;5033338;28;20040;-84
2023/08/14 10:12:36;;;;;;;5.40;2.85;;;22.90;99.90;;;;;;5048859;28;20495;-83
2023/08/14 10:15:10;;;;;;;6.82;2.90;;;23.00;99.90;;;;;;5020995;28;20037;-83
2023/08/14 10:17:55;;;;;;;4.93;2.85;;;23.10;99.90;;;;;;5033877;28;20441;-83
2023/08/14 10:20:25;;;;;;;7.45;2.88;;;23.30;99.90;;;;;;5049598;28;20032;-82
2023/08/14 10:22:53;;;;;;;4.28;2.78;;;23.60;99.90;;;;;;5066835;28;20040;-82
2023/08/14 10:25:23;;;;;;;4.60;2.97;;;23.70;99.90;;;;;;5010201;28;20087;-82
2023/08/14 10:27:51;;;;;;;4.20;2.83;;;23.70;99.90;;;;;;5038035;28;20056;-82
2023/08/14 10:30:20;;;;;;;5.10;2.63;;;23.80;99.90;;;;;;5050847;28;20039;-82
2023/08/14 10:32:47;;;;;;;5.25;3.00;;;23.90;99.90;;;;;;5036710;28;20468;-82
2023/08/14 10:35:12;;;;;;;3.88;2.30;;;23.90;99.90;;;;;;5049211;28;20083;-83
2023/08/14 10:37:49;;;;;;;4.25;2.45;;;23.90;99.90;;;;;;5049412;28;20045;-83
2023/08/14 10:40:21;;;;;;;4.07;2.65;;;23.80;99.90;;;;;;5034039;28;20110;-83
2023/08/14 10:42:50;;;;;;;4.97;2.65;;;23.60;99.90;;;;;;5035509;28;20044;-83
2023/08/14 10:45:17;;;;;;;6.93;3.03;;;23.40;99.90;;;;;;5032569;28;20133;-83
2023/08/14 10:47:43;;;;;;;4.50;2.30;;;23.50;99.90;;;;;;5032293;28;20045;-82
2023/08/14 10:50:33;;;;;;;4.88;2.55;;;23.60;99.90;;;;;;5054070;28;20036;-82
2023/08/14 10:52:58;;;;;;;4.20;2.50;;;23.70;99.90;;;;;;5059753;28;20048;-82
2023/08/14 10:55:42;;;;;;;4.25;2.42;;;24.00;99.90;;;;;;5040950;28;20110;-83
2023/08/14 10:58:35;;;;;;;6.97;2.65;;;24.00;99.90;;;;;;5036629;28;20662;-83
2023/08/14 11:01:03;;;;;;;5.40;2.90;;;24.10;99.90;;;;;;5048079;28;20385;-84
2023/08/14 11:03:31;;;;;;;3.67;2.60;;;23.90;99.90;;;;;;5057616;28;20111;-84
2023/08/14 11:05:57;;;;;;;6.15;2.70;;;23.90;99.90;;;;;;5033199;28;20040;-83
2023/08/14 11:08:23;;;;;;;5.00;2.10;;;24.00;99.90;;;;;;5049726;28;20033;-83
2023/08/14 11:10:49;;;;;;;3.45;2.00;;;24.00;99.90;;;;;;5049237;28;20068;-84
2023/08/14 11:13:16;;;;;;;2.35;1.83;;;23.90;99.90;;;;;;5031522;28;20116;-83
2023/08/14 11:15:42;;;;;;;4.03;2.15;;;23.90;99.90;;;;;;5049328;28;20044;-83
2023/08/14 11:18:09;;;;;;;5.25;2.00;;;23.70;99.90;;;;;;5047215;28;20072;-84
2023/08/14 11:20:37;;;;;;;4.38;2.08;;;23.90;99.90;;;;;;5032852;28;20040;-83
2023/08/14 11:23:03;;;;;;;6.28;2.42;;;24.00;99.90;;;;;;5052662;28;20781;-83
2023/08/14 11:25:31;;;;;;;3.75;2.25;;;24.10;99.90;;;;;;5057186;28;20524;-83
2023/08/14 11:27:56;;;;;;;4.55;2.30;;;24.30;99.90;;;;;;5044062;28;20032;-84
2023/08/14 11:30:24;;;;;;;6.32;2.40;;;24.50;99.90;;;;;;5020195;28;20400;-83
2023/08/14 11:32:51;;;;;;;2.95;2.15;;;24.80;99.90;;;;;;5037049;28;20049;-83
2023/08/14 11:35:18;;;;;;;3.20;2.00;;;24.90;99.90;;;;;;5053007;28;20045;-84
2023/08/14 11:37:47;;;;;;;4.03;2.00;;;25.00;99.90;;;;;;5051477;28;20049;-83
2023/08/14 11:40:15;;;;;;;3.53;1.95;;;24.90;99.90;;;;;;5041384;28;20090;-83
2023/08/14 11:42:42;;;;;;;3.90;2.17;;;25.00;99.90;;;;;;5053849;28;20080;-84
2023/08/14 11:45:09;;;;;;;4.80;1.90;;;25.00;99.90;;;;;;5049402;28;20760;-83
2023/08/14 11:47:37;;;;;;;4.53;2.00;;;25.00;99.90;;;;;;5053343;28;20041;-82
2023/08/14 11:50:04;;;;;;;4.20;1.75;;;24.80;99.90;;;;;;5036082;28;20615;-82
2023/08/14 11:52:31;;;;;;;3.90;2.03;;;24.90;99.90;;;;;;5025643;28;20044;-83
2023/08/14 11:54:57;;;;;;;4.85;2.20;;;24.90;99.90;;;;;;5034333;28;20111;-83
2023/08/14 11:57:27;;;;;;;6.05;2.47;;;25.00;99.90;;;;;;5035321;28;20145;-82
2023/08/14 11:59:55;;;;;;;3.85;2.13;;;24.90;99.90;;;;;;5035405;28;20041;-82
2023/08/14 12:02:23;;;;;;;5.55;2.65;;;24.90;99.90;;;;;;5053380;28;20049;-83
2023/08/14 12:04:54;;;;;;;4.82;2.20;;;25.00;99.90;;;;;;5062566;28;20488;-83
2023/08/14 12:07:20;;;;;;;4.45;2.20;;;25.20;99.90;;;;;;5031507;28;20472;-82
2023/08/14 12:09:47;;;;;;;3.97;1.90;;;25.30;99.90;;;;;;5055556;28;20040;-83
2023/08/14 12:12:13;;;;;;;4.93;2.28;;;25.40;99.90;;;;;;5018113;28;20483;-84
2023/08/14 12:14:42;;;;;;;4.30;2.00;;;25.50;99.90;;;;;;5036107;28;20049;-82
2023/08/14 12:17:12;;;;;;;3.33;1.92;;;25.60;99.90;;;;;;5053362;28;20044;-82
2023/08/14 12:19:38;;;;;;;3.72;1.92;;;25.70;99.90;;;;;;5056614;28;20709;-83
2023/08/14 12:22:06;;;;;;;3.78;2.10;;;25.80;99.90;;;;;;5049987;28;20366;-83
2023/08/14 12:24:39;;;;;;;2.35;1.95;;;25.90;99.90;;;;;;5026301;28;20171;-83
2023/08/14 12:27:14;;;;;;;4.80;1.95;;;25.90;99.90;;;;;;5052347;28;20064;-82
2023/08/14 12:29:39;;;;;;;3.58;2.20;;;25.80;99.90;;;;;;5051414;28;20396;-82
2023/08/14 12:32:05;;;;;;;4.10;1.90;;;25.70;99.90;;;;;;5012516;28;20038;-83
2023/08/14 12:34:31;;;;;;;4.18;2.25;;;25.70;99.90;;;;;;5031248;28;20048;-83
2023/08/14 12:36:56;;;;;;;3.58;2.00;;;25.80;99.90;;;;;;5031729;28;20412;-82
2023/08/14 12:39:22;;;;;;;5.65;2.30;;;25.70;99.90;;;;;;5051546;28;20043;-82
2023/08/14 12:41:48;;;;;;;2.92;1.88;;;25.70;99.90;;;;;;5055491;28;20120;-82